If you wish to contribute or participate in the discussions about articles you are invited to join SKYbrary as a registered user

 Actions

Baden Airpark

From SKYbrary Wiki

EDSB
Airport
ICAO: EDSB – IATA: FKB
Summary
Name Baden Airpark
Region Europe
Territory Germany DE.gif
Location Rheinmünster, Baden-Wurttemberg
Serving Baden Baden and Karlsruhe
Elevation 124.358 m
408 ft
408 ft124.358 m
Type large airport
Coordinates 48° 46' 40.80" N, 8° 5' 16.01" E
Runways
Designator Length Width Surface ROPS
3/21 2983 m9,786.745 ft
45 m147.638 ft
ASP yes/yes


METAR
Observation EDSB 190620Z VRB01KT 9999 FEW028 SCT043 01/01 Q1027
Station Karlsruhe, Baden Wurttemberg
Date/Time 19 March 2019 06:20:00
Wind direction °
Wind speed 01 kts
Lowest cloud amount few clouds
Temperature 1°C
Dew point 1°C
Humidity 100%
QNH 1027 hPa
Weather condition n/a

Baden Airpark

ICAO: EDSB IATA: FKB

Description

International airport serving Baden-Baden and Karlsruhe, Germany.

Climatology

Temperate Marine climate/Oceanic climate (Köppen climate classification Cfb) - Moderately cool summer and comparatively warm winter.

Maps

Terrain

Loading map...

Airport Layout

Loading map...


Accidents & Serious Incidents at or in vicinity of EDSB

None on SKYbrary